METAR Data

Data at: 1301 UTC 24 May 2022

METAR for:KCON (Concord Muni, NH, US)
Text:KCON 241251Z AUTO 09006KT 10SM CLR 13/01 A3038 RMK AO2 SLP288 T01330011
Temperature: 13.3°C ( 56°F)
Dewpoint: 1.1°C ( 34°F) [RH = 43%]
Pressure (altimeter):30.38 inches Hg (1028.9 mb) [Sea level pressure: 1028.8 mb]
Winds:from the E (90 degrees) at 7 MPH (6 knots; 3.1 m/s)
Visibility:10 or more sm (16+ km)
Ceiling:at least 12,000 feet AGL
Clouds:sky clear below 12,000 feet AGL
QC Flag:automated observation with no human augmentation